createdAt,value
2022-09-25T00:55:49.397Z,102214.75
2022-09-25T00:58:20.354Z,102211.19
2022-09-25T01:00:48.153Z,102212.16
2022-09-25T01:03:16.072Z,102207.81
2022-09-25T01:05:44.326Z,102217.69
2022-09-25T01:08:13.760Z,102210.81
2022-09-25T01:10:42.092Z,102212.66
2022-09-25T01:13:09.913Z,102217.16
2022-09-25T01:15:40.773Z,102218.91
2022-09-25T01:18:16.057Z,102214.38
2022-09-25T01:21:06.246Z,102216.31
2022-09-25T01:23:56.881Z,102211.91
2022-09-25T01:26:35.533Z,102209.19
2022-09-25T01:29:07.931Z,102202.97
2022-09-25T01:31:36.585Z,102205.59
2022-09-25T01:34:10.240Z,102206.50
2022-09-25T01:36:39.803Z,102198.66
2022-09-25T01:39:10.633Z,102188.19
2022-09-25T01:41:41.517Z,102205.91
2022-09-25T01:44:13.656Z,102206.91
2022-09-25T01:46:43.787Z,102202.53
2022-09-25T01:49:15.281Z,102195.78
2022-09-25T01:51:44.901Z,102203.88
2022-09-25T01:54:14.157Z,102197.84
2022-09-25T01:56:44.197Z,102205.03
2022-09-25T01:59:15.212Z,102205.19
2022-09-25T02:01:44.065Z,102194.75
2022-09-25T02:04:13.839Z,102203.69
2022-09-25T02:06:42.271Z,102209.06
2022-09-25T02:09:11.479Z,102206.56
2022-09-25T02:11:40.945Z,102220.66
2022-09-25T02:14:10.254Z,102217.09
2022-09-25T02:16:43.592Z,102209.97
2022-09-25T02:19:29.280Z,102220.66
2022-09-25T02:22:00.281Z,102218.94
2022-09-25T02:24:30.445Z,102218.09
2022-09-25T02:26:58.329Z,102217.16
2022-09-25T02:29:26.311Z,102220.72
2022-09-25T02:31:57.056Z,102219.78
2022-09-25T02:34:24.980Z,102218.94
2022-09-25T02:36:52.879Z,102219.00
2022-09-25T02:39:22.568Z,102225.38
2022-09-25T02:42:02.632Z,102223.59
2022-09-25T02:44:34.662Z,102224.47
2022-09-25T02:47:14.237Z,102227.16
2022-09-25T02:49:46.416Z,102216.56
2022-09-25T02:52:15.778Z,102220.25
2022-09-25T02:54:46.814Z,102227.56
2022-09-25T02:57:17.190Z,102227.81
2022-09-25T02:59:46.939Z,102222.75
2022-09-25T03:02:16.280Z,102226.25
2022-09-25T03:04:44.308Z,102226.22
2022-09-25T03:07:12.210Z,102228.88
2022-09-25T03:09:39.080Z,102223.56
2022-09-25T03:12:07.136Z,102226.34
2022-09-25T03:14:35.035Z,102225.56
2022-09-25T03:17:04.809Z,102230.94
2022-09-25T03:19:34.895Z,102232.84
2022-09-25T03:22:02.929Z,102225.81
2022-09-25T03:24:31.411Z,102229.47
2022-09-25T03:26:59.365Z,102230.44
2022-09-25T03:29:27.379Z,102233.09
2022-09-25T03:31:55.532Z,102229.59
2022-09-25T03:34:23.430Z,102222.50
2022-09-25T03:36:52.723Z,102229.53
2022-09-25T03:39:20.625Z,102230.44
2022-09-25T03:41:48.915Z,102234.94
2022-09-25T03:44:16.805Z,102224.38
2022-09-25T03:46:44.704Z,102225.31
2022-09-25T03:49:12.876Z,102220.00
2022-09-25T03:51:42.119Z,102219.16
2022-09-25T03:54:11.547Z,102217.50
2022-09-25T03:56:39.705Z,102215.06
2022-09-25T03:59:07.668Z,102212.41
2022-09-25T04:01:37.138Z,102212.53
2022-09-25T04:04:05.125Z,102190.75
2022-09-25T04:06:33.008Z,102209.97
2022-09-25T04:09:00.900Z,102221.63
2022-09-25T04:11:30.125Z,102212.91
2022-09-25T04:13:58.070Z,102216.56
2022-09-25T04:16:26.102Z,102210.34
2022-09-25T04:18:54.057Z,102214.75
2022-09-25T04:21:21.924Z,102214.72
2022-09-25T04:24:03.743Z,102209.41
2022-09-25T04:26:33.207Z,102215.66
2022-09-25T04:29:01.647Z,102218.34
2022-09-25T04:31:29.799Z,102223.66
2022-09-25T04:33:56.784Z,102221.00
2022-09-25T04:36:24.686Z,102214.84
2022-09-25T04:38:52.636Z,102214.97
2022-09-25T04:41:20.798Z,102214.16
2022-09-25T04:43:50.134Z,102219.53
2022-09-25T04:46:22.359Z,102219.56
2022-09-25T04:48:50.855Z,102226.69
2022-09-25T04:51:18.815Z,102231.09
2022-09-25T04:53:47.326Z,102231.09
2022-09-25T04:56:16.803Z,102230.22
2022-09-25T04:58:46.150Z,102232.00
2022-09-25T05:01:15.630Z,102232.06
2022-09-25T05:03:43.945Z,102232.06
2022-09-25T05:06:11.907Z,102228.63
2022-09-25T05:08:39.825Z,102240.22
2022-09-25T05:11:07.967Z,102232.25
2022-09-25T05:13:35.862Z,102234.84
2022-09-25T05:16:03.815Z,102230.41
2022-09-25T05:21:04.302Z,102234.13
2022-09-25T05:23:32.241Z,102237.75
2022-09-25T05:26:02.575Z,102238.63
2022-09-25T05:28:30.899Z,102230.63
2022-09-25T05:31:00.186Z,102239.47
2022-09-25T05:33:28.152Z,102252.84
2022-09-25T05:36:00.993Z,102251.06
2022-09-25T05:38:29.254Z,102242.22
2022-09-25T05:40:57.325Z,102244.94
2022-09-25T05:43:25.475Z,102233.47
2022-09-25T05:45:56.303Z,102238.75
2022-09-25T05:48:24.348Z,102243.22
2022-09-25T05:50:53.291Z,102240.63
2022-09-25T05:53:22.609Z,102239.06
2022-09-25T05:55:51.650Z,102241.72
2022-09-25T05:58:19.654Z,102235.69
2022-09-25T06:00:47.705Z,102252.53
2022-09-25T06:03:15.813Z,102247.28
2022-09-25T06:05:46.169Z,102252.59
2022-09-25T06:08:14.302Z,102255.25
2022-09-25T06:10:45.081Z,102250.75
2022-09-25T06:13:14.919Z,102254.25
2022-09-25T06:15:42.889Z,102253.31
2022-09-25T06:18:11.215Z,102250.66
2022-09-25T06:20:39.101Z,102250.66
2022-09-25T06:23:07.740Z,102246.25
2022-09-25T06:25:36.513Z,102245.38
2022-09-25T06:28:09.775Z,102244.50
2022-09-25T06:30:38.405Z,102248.00
2022-09-25T06:33:07.767Z,102250.66
2022-09-25T06:35:35.708Z,102230.34
2022-09-25T06:38:06.677Z,102241.38
2022-09-25T06:40:34.867Z,102250.88
2022-09-25T06:43:03.288Z,102251.59
2022-09-25T06:45:34.941Z,102257.66
2022-09-25T06:48:08.296Z,102247.78
2022-09-25T06:50:40.721Z,102241.28
2022-09-25T06:53:12.241Z,102248.19
2022-09-25T06:55:40.259Z,102244.53
2022-09-25T06:58:09.516Z,102250.69
2022-09-25T07:00:38.885Z,102232.78
2022-09-25T07:03:25.019Z,102240.63
2022-09-25T07:05:53.003Z,102240.63
2022-09-25T07:08:22.526Z,102241.31
2022-09-25T07:10:51.224Z,102240.25
2022-09-25T07:13:19.258Z,102243.63
2022-09-25T07:15:53.774Z,102237.28
2022-09-25T07:18:25.517Z,102247.00
2022-09-25T07:20:53.987Z,102246.03
2022-09-25T07:23:22.598Z,102239.63
2022-09-25T07:25:50.485Z,102243.13
2022-09-25T07:28:20.085Z,102243.13
2022-09-25T07:30:48.258Z,102235.88
2022-09-25T07:33:17.815Z,102236.56
2022-09-25T07:35:45.937Z,102249.66
2022-09-25T07:38:13.956Z,102244.94
2022-09-25T07:40:42.007Z,102247.31
2022-09-25T07:43:10.564Z,102253.28
2022-09-25T07:45:38.785Z,102254.75
2022-09-25T07:48:07.387Z,102249.25
2022-09-25T07:50:36.706Z,102257.00
2022-09-25T07:53:04.961Z,102247.09
2022-09-25T07:55:32.962Z,102264.56
2022-09-25T07:58:00.859Z,102258.16
2022-09-25T08:00:31.802Z,102256.00
2022-09-25T08:03:00.125Z,102251.19
2022-09-25T08:05:28.844Z,102261.41
2022-09-25T08:08:04.155Z,102252.22
2022-09-25T08:10:32.674Z,102257.19
2022-09-25T08:13:01.041Z,102256.03
2022-09-25T08:15:29.146Z,102259.38
2022-09-25T08:17:57.289Z,102252.88
2022-09-25T08:20:25.158Z,102257.09
2022-09-25T08:22:54.944Z,102259.47
2022-09-25T08:25:24.353Z,102260.13
2022-09-25T08:27:52.251Z,102266.06
2022-09-25T08:30:20.317Z,102270.28
2022-09-25T08:32:48.415Z,102275.38
2022-09-25T08:35:16.462Z,102278.63
2022-09-25T08:37:45.089Z,102274.81
2022-09-25T08:40:17.807Z,102248.19
2022-09-25T08:42:47.992Z,102267.03
2022-09-25T08:45:42.053Z,102266.69
2022-09-25T08:48:28.560Z,102261.09
2022-09-25T08:50:56.444Z,102260.66
2022-09-25T08:53:25.408Z,102259.47
2022-09-25T08:56:10.566Z,102258.19
2022-09-25T08:58:43.264Z,102251.69
2022-09-25T09:01:14.240Z,102256.78
2022-09-25T09:03:46.087Z,102252.06
2022-09-25T09:06:15.523Z,102251.88
2022-09-25T09:08:44.644Z,102260.38
2022-09-25T09:11:13.982Z,102250.25
2022-09-25T09:13:51.995Z,102261.56
2022-09-25T09:16:24.856Z,102256.72
2022-09-25T09:18:55.621Z,102255.53
2022-09-25T09:21:26.631Z,102246.34
2022-09-25T09:24:00.332Z,102247.69
2022-09-25T09:26:37.669Z,102240.25
2022-09-25T09:29:29.327Z,102243.41
2022-09-25T09:32:01.779Z,102243.84
2022-09-25T09:37:49.380Z,102240.41
2022-09-25T09:40:22.363Z,102232.78
2022-09-25T09:42:53.801Z,102234.09
2022-09-25T09:45:26.106Z,102219.03
2022-09-25T09:47:57.433Z,102220.47
2022-09-25T09:50:32.710Z,102220.38
2022-09-25T09:53:02.758Z,102223.66
2022-09-25T09:55:36.556Z,102216.25
2022-09-25T09:58:08.686Z,102219.63
2022-09-25T10:00:39.119Z,102211.16
2022-09-25T10:03:13.150Z,102210.84
2022-09-25T10:05:43.967Z,102211.81
2022-09-25T10:08:11.837Z,102208.31
2022-09-25T10:10:40.721Z,102209.28
2022-09-25T10:13:15.258Z,102209.56
2022-09-25T10:15:48.342Z,102203.56
2022-09-25T10:18:16.402Z,102205.47
2022-09-25T10:20:45.866Z,102193.81
2022-09-25T10:23:23.405Z,102149.50
2022-09-25T10:25:55.745Z,102197.47
2022-09-25T10:28:28.000Z,102198.59
2022-09-25T10:30:58.215Z,102188.25
2022-09-25T10:33:26.515Z,102189.44
2022-09-25T10:35:55.128Z,102185.25
2022-09-25T10:38:42.145Z,102189.53
2022-09-25T10:41:12.236Z,102184.91
2022-09-25T10:43:55.973Z,102178.78
2022-09-25T10:46:43.802Z,102183.88
2022-09-25T10:49:32.901Z,102182.44
2022-09-25T10:52:06.451Z,102178.47
2022-09-25T10:54:37.812Z,102167.22
2022-09-25T10:57:18.254Z,102161.28
2022-09-25T10:59:49.473Z,102161.88
2022-09-25T11:02:28.406Z,102161.78
2022-09-25T11:04:56.960Z,102161.50
2022-09-25T11:07:27.880Z,102162.38
2022-09-25T11:09:59.986Z,102149.94
2022-09-25T11:12:29.931Z,102154.84
2022-09-25T11:14:58.899Z,102148.56
2022-09-25T11:17:33.445Z,102155.63
2022-09-25T11:20:14.088Z,102145.22
2022-09-25T11:22:42.289Z,102140.19
2022-09-25T11:25:14.044Z,102134.78
2022-09-25T11:27:43.414Z,102133.94
2022-09-25T11:30:13.089Z,102133.06
2022-09-25T11:32:51.706Z,102128.03
2022-09-25T11:35:37.429Z,102125.72
2022-09-25T11:38:11.576Z,102136.78
2022-09-25T11:41:00.963Z,102130.28
2022-09-25T11:43:37.564Z,102126.19
2022-09-25T11:46:19.674Z,102131.59
2022-09-25T11:48:54.506Z,102122.81
2022-09-25T11:51:29.634Z,102120.94
2022-09-25T11:54:25.345Z,102117.19
2022-09-25T11:56:54.370Z,102115.53
2022-09-25T11:59:28.902Z,102121.06
2022-09-25T12:01:59.741Z,102111.41
2022-09-25T12:04:56.084Z,102108.84
2022-09-25T12:07:39.918Z,102107.28
2022-09-25T12:10:25.092Z,102109.16
2022-09-25T12:12:57.741Z,102113.69
2022-09-25T12:15:27.772Z,102106.75
2022-09-25T12:18:05.246Z,102113.47
2022-09-25T12:20:38.757Z,102103.13
2022-09-25T12:23:18.395Z,102113.59
2022-09-25T12:25:53.148Z,102104.19
2022-09-25T12:28:27.187Z,102096.06
2022-09-25T12:31:02.244Z,102092.06
2022-09-25T12:33:36.449Z,102087.31
2022-09-25T12:36:09.164Z,102075.81
2022-09-25T12:38:40.996Z,102084.69
2022-09-25T12:41:10.931Z,102083.31
2022-09-25T12:43:43.410Z,102080.97
2022-09-25T12:46:15.252Z,102074.84
2022-09-25T12:48:45.260Z,102083.06
2022-09-25T12:51:21.793Z,102067.88
2022-09-25T12:53:51.901Z,102075.25
2022-09-25T12:56:22.817Z,102068.28
2022-09-25T12:59:00.966Z,102068.91
2022-09-25T13:01:33.743Z,102060.88
2022-09-25T13:04:10.329Z,102071.91
2022-09-25T13:06:43.596Z,102074.97
2022-09-25T13:09:22.640Z,102071.91
2022-09-25T13:11:52.618Z,102059.78
2022-09-25T13:14:29.783Z,102044.06
2022-09-25T13:16:58.351Z,102056.31
2022-09-25T13:19:27.371Z,102059.53
2022-09-25T13:22:03.732Z,102050.56
2022-09-25T13:24:32.458Z,102054.13
2022-09-25T13:27:03.392Z,102049.69
2022-09-25T13:29:35.463Z,102045.81
2022-09-25T13:32:04.843Z,102050.16
2022-09-25T13:34:35.462Z,102052.66
2022-09-25T13:37:05.427Z,102041.00
2022-09-25T13:39:53.694Z,102039.28
2022-09-25T13:42:27.210Z,102035.28
2022-09-25T13:45:07.939Z,102036.06
2022-09-25T13:47:57.334Z,102031.81
2022-09-25T13:50:42.833Z,102024.63
2022-09-25T13:53:34.994Z,102020.63
2022-09-25T13:56:18.589Z,102020.00
2022-09-25T13:59:26.507Z,102015.84
2022-09-25T14:02:00.025Z,102015.09
2022-09-25T14:04:33.122Z,102006.66
2022-09-25T14:07:23.106Z,102013.78
2022-09-25T14:09:54.771Z,102009.47
2022-09-25T14:12:39.177Z,101994.72
2022-09-25T14:15:08.601Z,102018.63
2022-09-25T14:17:39.431Z,102003.34
2022-09-25T14:20:11.197Z,101997.13
2022-09-25T14:22:43.191Z,102004.63
2022-09-25T14:25:28.327Z,102009.63
2022-09-25T14:27:56.463Z,102017.25
2022-09-25T14:30:29.126Z,102020.38
2022-09-25T14:33:15.991Z,102026.88
2022-09-25T14:35:47.752Z,102017.16
2022-09-25T14:38:36.056Z,102017.47
2022-09-25T14:41:30.764Z,102016.50
2022-09-25T14:44:17.917Z,102014.88
2022-09-25T14:46:46.146Z,102008.34
2022-09-25T14:49:20.108Z,102000.06
2022-09-25T14:51:48.898Z,102004.78
2022-09-25T14:54:19.362Z,102002.72
2022-09-25T14:56:50.274Z,102003.09
2022-09-25T14:59:19.309Z,102003.75
2022-09-25T15:01:48.260Z,101999.75
2022-09-25T15:04:26.766Z,101992.94
2022-09-25T15:07:00.626Z,101987.38
2022-09-25T15:09:30.673Z,101977.06
2022-09-25T15:12:00.589Z,101977.59
2022-09-25T15:14:28.734Z,101965.06
2022-09-25T15:17:14.356Z,101959.94
2022-09-25T15:19:47.536Z,101957.16
2022-09-25T15:22:18.712Z,101951.97
2022-09-25T15:24:48.553Z,101953.63
2022-09-25T15:27:18.275Z,101950.75
2022-09-25T15:29:47.238Z,101942.59
2022-09-25T15:32:18.448Z,101935.25
2022-09-25T15:34:47.170Z,101929.66
2022-09-25T15:37:21.061Z,101928.59
2022-09-25T15:39:49.023Z,101923.69
2022-09-25T15:42:18.333Z,101929.63
2022-09-25T15:44:46.701Z,101921.03
2022-09-25T15:47:52.058Z,101912.31
2022-09-25T15:50:24.269Z,101915.41
2022-09-25T15:52:52.689Z,101917.44
2022-09-25T15:55:20.797Z,101914.72
2022-09-25T15:57:50.556Z,101902.13
2022-09-25T16:00:37.299Z,101898.38
2022-09-25T16:03:24.474Z,101902.97
2022-09-25T16:05:52.937Z,101905.53
2022-09-25T16:08:29.419Z,101910.16
2022-09-25T16:11:16.801Z,101921.34
2022-09-25T16:13:48.776Z,101913.53
2022-09-25T16:16:22.155Z,101903.25
2022-09-25T16:18:51.233Z,101903.34
2022-09-25T16:21:24.709Z,101908.44
2022-09-25T16:23:56.243Z,101906.38
2022-09-25T16:26:26.498Z,101894.66
2022-09-25T16:29:05.056Z,101899.06
2022-09-25T16:31:34.136Z,101892.50
2022-09-25T16:34:02.178Z,101890.25
2022-09-25T16:36:37.916Z,101901.28
2022-09-25T16:39:21.744Z,101888.38
2022-09-25T16:41:49.939Z,101883.25
2022-09-25T16:44:20.390Z,101884.84
2022-09-25T16:47:05.741Z,101872.34
2022-09-25T16:49:34.269Z,101880.25
2022-09-25T16:52:04.691Z,101862.59
2022-09-25T16:54:32.787Z,101867.47
2022-09-25T16:57:02.446Z,101859.66
2022-09-25T16:59:32.147Z,101866.09
2022-09-25T17:02:01.928Z,101863.59
2022-09-25T17:04:31.727Z,101863.03
2022-09-25T17:07:02.104Z,101869.66
2022-09-25T17:09:31.428Z,101873.53
2022-09-25T17:12:01.469Z,101867.66
2022-09-25T17:14:29.765Z,101863.41
2022-09-25T17:16:59.182Z,101858.38
2022-09-25T17:19:27.121Z,101868.50
2022-09-25T17:21:56.227Z,101861.66
2022-09-25T17:24:25.111Z,101867.28
2022-09-25T17:26:53.130Z,101849.25
2022-09-25T17:29:21.558Z,101843.16
2022-09-25T17:31:49.512Z,101846.97
2022-09-25T17:34:21.096Z,101849.88
2022-09-25T17:36:49.203Z,101836.88
2022-09-25T17:39:17.127Z,101838.31
2022-09-25T17:41:45.097Z,101843.34
2022-09-25T17:44:14.000Z,101847.06
2022-09-25T17:46:42.132Z,101840.81
2022-09-25T17:49:11.294Z,101839.00
2022-09-25T17:51:40.767Z,101830.16
2022-09-25T17:54:09.061Z,101814.28
2022-09-25T17:56:40.444Z,101821.28
2022-09-25T17:59:09.172Z,101798.84
2022-09-25T18:01:39.802Z,101790.09
2022-09-25T18:04:18.203Z,101788.44
2022-09-25T18:06:47.507Z,101781.94
2022-09-25T18:09:15.457Z,101772.22
2022-09-25T18:11:46.985Z,101762.38
2022-09-25T18:14:15.683Z,101767.00
2022-09-25T18:16:44.440Z,101771.69
2022-09-25T18:19:33.148Z,101755.69
2022-09-25T18:22:25.305Z,101749.59
2022-09-25T18:24:56.425Z,101753.25
2022-09-25T18:27:25.058Z,101736.41
2022-09-25T18:29:52.989Z,101747.69
2022-09-25T18:32:20.952Z,101743.19
2022-09-25T18:34:48.875Z,101735.91
2022-09-25T18:37:18.165Z,101739.31
2022-09-25T18:39:47.920Z,101732.97
2022-09-25T18:42:15.870Z,101731.16
2022-09-25T18:44:43.863Z,101734.78
2022-09-25T18:47:11.905Z,101743.56
2022-09-25T18:49:40.158Z,101720.25
2022-09-25T18:52:08.093Z,101721.03
2022-09-25T18:54:37.405Z,101711.13
2022-09-25T18:57:05.320Z,101705.75
2022-09-25T18:59:33.520Z,101707.78
2022-09-25T19:02:02.047Z,101689.06
2022-09-25T19:04:30.197Z,101696.25
2022-09-25T19:06:58.247Z,101693.56
2022-09-25T19:09:27.776Z,101686.53
2022-09-25T19:11:57.234Z,101681.06
2022-09-25T19:14:25.331Z,101680.22
2022-09-25T19:16:53.367Z,101671.19
2022-09-25T19:19:21.317Z,101674.84
2022-09-25T19:21:49.329Z,101679.25
2022-09-25T19:24:18.316Z,101668.41
2022-09-25T19:26:46.376Z,101669.28
2022-09-25T19:29:15.845Z,101667.47
2022-09-25T19:31:44.358Z,101680.75
2022-09-25T19:34:12.504Z,101676.22
2022-09-25T19:36:40.724Z,101672.59
2022-09-25T19:39:08.797Z,101662.72
2022-09-25T19:41:38.034Z,101664.53
2022-09-25T19:44:12.752Z,101668.09
2022-09-25T19:46:43.470Z,101656.47
2022-09-25T19:49:11.549Z,101670.69
2022-09-25T19:51:39.529Z,101669.81
2022-09-25T19:54:07.641Z,101669.81
2022-09-25T19:56:40.569Z,101666.19
2022-09-25T19:59:09.163Z,101659.78
2022-09-25T20:01:38.327Z,101659.78
2022-09-25T20:04:08.597Z,101666.03
2022-09-25T20:06:38.077Z,101665.81
2022-09-25T20:09:06.772Z,101659.50
2022-09-25T20:11:35.963Z,101643.41
2022-09-25T20:14:05.044Z,101640.72
2022-09-25T20:16:33.843Z,101635.22
2022-09-25T20:19:02.989Z,101635.13
2022-09-25T20:21:33.781Z,101632.38
2022-09-25T20:24:02.508Z,101625.09
2022-09-25T20:26:30.603Z,101636.72
2022-09-25T20:28:59.324Z,101624.22
2022-09-25T20:31:27.611Z,101616.16
2022-09-25T20:33:55.772Z,101614.34
2022-09-25T20:36:24.046Z,101623.53
2022-09-25T20:38:53.554Z,101613.56
2022-09-25T20:41:21.917Z,101591.84
2022-09-25T20:43:50.305Z,101607.16
2022-09-25T20:46:19.621Z,101592.75
2022-09-25T20:48:48.493Z,101583.66
2022-09-25T20:51:18.663Z,101589.13
2022-09-25T20:53:50.724Z,101590.75
2022-09-25T20:56:20.410Z,101571.94
2022-09-25T20:58:52.870Z,101574.56
2022-09-25T21:01:23.475Z,101575.50
2022-09-25T21:03:51.694Z,101569.34
2022-09-25T21:06:20.395Z,101559.47
2022-09-25T21:08:48.608Z,101552.34
2022-09-25T21:11:16.500Z,101547.84
2022-09-25T21:13:45.781Z,101539.13
2022-09-25T21:16:15.008Z,101545.34
2022-09-25T21:18:43.503Z,101533.81
2022-09-25T21:21:12.410Z,101532.75
2022-09-25T21:23:40.545Z,101526.63
2022-09-25T21:26:10.342Z,101520.47
2022-09-25T21:28:39.119Z,101520.09
2022-09-25T21:31:10.411Z,101524.53
2022-09-25T21:33:38.425Z,101520.81
2022-09-25T21:36:06.713Z,101515.22
2022-09-25T21:38:37.259Z,101511.59
2022-09-25T21:41:06.364Z,101508.81
2022-09-25T21:43:35.097Z,101507.75
2022-09-25T21:46:03.995Z,101505.84
2022-09-25T21:48:35.052Z,101505.94
2022-09-25T21:51:03.409Z,101511.19
2022-09-25T21:53:35.648Z,101498.59
2022-09-25T21:56:04.800Z,101486.78
2022-09-25T21:58:32.957Z,101473.16
2022-09-25T22:01:05.589Z,101469.50
2022-09-25T22:03:35.384Z,101469.78
2022-09-25T22:06:04.066Z,101465.28
2022-09-25T22:08:32.089Z,101475.00
2022-09-25T22:11:00.524Z,101454.47
2022-09-25T22:13:29.237Z,101456.06
2022-09-25T22:16:01.509Z,101461.44
2022-09-25T22:18:29.557Z,101451.38
2022-09-25T22:20:58.855Z,101449.75
2022-09-25T22:23:26.858Z,101436.22
2022-09-25T22:25:54.825Z,101419.25
2022-09-25T22:28:22.788Z,101424.50
2022-09-25T22:30:51.192Z,101412.28
2022-09-25T22:33:19.137Z,101408.28
2022-09-25T22:35:46.997Z,101401.84
2022-09-25T22:38:16.316Z,101393.69
2022-09-25T22:40:44.272Z,101390.16
2022-09-25T22:43:12.301Z,101393.59
2022-09-25T22:45:40.732Z,101368.06
2022-09-25T22:48:09.138Z,101362.41
2022-09-25T22:50:37.056Z,101354.63
2022-09-25T22:53:05.052Z,101332.34
2022-09-25T22:55:34.952Z,101336.38
2022-09-25T22:58:08.634Z,101317.16
2022-09-25T23:00:37.089Z,101301.41
2022-09-25T23:03:05.071Z,101323.28
2022-09-25T23:05:36.736Z,101313.88
2022-09-25T23:08:04.901Z,101317.44
2022-09-25T23:10:55.241Z,101318.78
2022-09-25T23:13:23.056Z,101300.34
2022-09-25T23:15:51.219Z,101297.25
2022-09-25T23:18:19.102Z,101278.00
2022-09-25T23:20:46.980Z,101266.03
2022-09-25T23:23:15.185Z,101245.75
2022-09-25T23:25:46.522Z,101243.25
2022-09-25T23:28:14.554Z,101239.22
2022-09-25T23:30:42.706Z,101231.16
2022-09-25T23:33:10.645Z,101229.91
2022-09-25T23:35:38.558Z,101229.63
2022-09-25T23:38:06.454Z,101231.06
2022-09-25T23:40:34.446Z,101211.09
2022-09-25T23:43:04.091Z,101210.69
2022-09-25T23:45:32.078Z,101209.63
2022-09-25T23:48:00.049Z,101187.91
2022-09-25T23:50:28.057Z,101173.19
2022-09-25T23:52:56.017Z,101181.81
2022-09-25T23:55:23.874Z,101188.84
2022-09-25T23:57:51.806Z,101155.59
